sensor_id;sensor_type;location;lat;lon;timestamp;temperature;humidity
7028;DHT22;3555;53.248;10.336;2022-08-23T00:01:43;18.90;1.00
7028;DHT22;3555;53.248;10.336;2022-08-23T00:04:13;19.00;1.00
7028;DHT22;3555;53.248;10.336;2022-08-23T00:06:41;18.90;1.00
7028;DHT22;3555;53.248;10.336;2022-08-23T00:09:09;18.90;59.80
7028;DHT22;3555;53.248;10.336;2022-08-23T00:11:39;18.80;99.90
7028;DHT22;3555;53.248;10.336;2022-08-23T00:14:09;18.70;99.90
7028;DHT22;3555;53.248;10.336;2022-08-23T00:16:36;18.60;1.00
7028;DHT22;3555;53.248;10.336;2022-08-23T00:19:06;18.60;1.00
7028;DHT22;3555;53.248;10.336;2022-08-23T00:21:33;18.50;1.00
7028;DHT22;3555;53.248;10.336;2022-08-23T00:24:01;18.50;1.00
7028;DHT22;3555;53.248;10.336;2022-08-23T00:26:53;18.40;99.90
7028;DHT22;3555;53.248;10.336;2022-08-23T00:29:23;18.40;99.90
7028;DHT22;3555;53.248;10.336;2022-08-23T00:31:51;18.50;99.90
7028;DHT22;3555;53.248;10.336;2022-08-23T00:34:19;18.40;99.90
7028;DHT22;3555;53.248;10.336;2022-08-23T00:36:46;18.50;99.90
7028;DHT22;3555;53.248;10.336;2022-08-23T00:39:14;18.50;99.90
7028;DHT22;3555;53.248;10.336;2022-08-23T00:41:41;18.50;99.90
7028;DHT22;3555;53.248;10.336;2022-08-23T00:44:13;18.40;1.00
7028;DHT22;3555;53.248;10.336;2022-08-23T00:47:00;18.40;1.00
7028;DHT22;3555;53.248;10.336;2022-08-23T00:49:51;18.30;1.00
7028;DHT22;3555;53.248;10.336;2022-08-23T00:52:23;18.20;99.90
7028;DHT22;3555;53.248;10.336;2022-08-23T00:54:53;18.20;99.90
7028;DHT22;3555;53.248;10.336;2022-08-23T00:57:21;18.10;1.00
7028;DHT22;3555;53.248;10.336;2022-08-23T00:59:49;18.00;99.90
7028;DHT22;3555;53.248;10.336;2022-08-23T01:02:16;18.00;1.00
7028;DHT22;3555;53.248;10.336;2022-08-23T01:04:48;18.00;1.00
7028;DHT22;3555;53.248;10.336;2022-08-23T01:07:23;17.90;99.90
7028;DHT22;3555;53.248;10.336;2022-08-23T01:09:58;18.00;99.90
7028;DHT22;3555;53.248;10.336;2022-08-23T01:12:31;18.00;1.00
7028;DHT22;3555;53.248;10.336;2022-08-23T01:15:04;18.10;1.00
7028;DHT22;3555;53.248;10.336;2022-08-23T01:17:35;18.10;1.00
7028;DHT22;3555;53.248;10.336;2022-08-23T01:20:08;18.10;1.00
7028;DHT22;3555;53.248;10.336;2022-08-23T01:22:40;18.10;1.00
7028;DHT22;3555;53.248;10.336;2022-08-23T01:25:13;18.20;1.00
7028;DHT22;3555;53.248;10.336;2022-08-23T01:27:43;18.20;99.90
7028;DHT22;3555;53.248;10.336;2022-08-23T01:30:14;18.40;14.30
7028;DHT22;3555;53.248;10.336;2022-08-23T01:32:44;18.40;1.00
7028;DHT22;3555;53.248;10.336;2022-08-23T01:35:12;18.50;99.90
7028;DHT22;3555;53.248;10.336;2022-08-23T01:37:39;18.70;99.90
7028;DHT22;3555;53.248;10.336;2022-08-23T01:40:08;18.50;99.90
7028;DHT22;3555;53.248;10.336;2022-08-23T01:42:36;18.50;99.90
7028;DHT22;3555;53.248;10.336;2022-08-23T01:45:07;18.40;1.00
7028;DHT22;3555;53.248;10.336;2022-08-23T01:47:34;18.50;1.00
7028;DHT22;3555;53.248;10.336;2022-08-23T01:50:01;18.50;1.00
7028;DHT22;3555;53.248;10.336;2022-08-23T01:52:28;18.60;1.00
7028;DHT22;3555;53.248;10.336;2022-08-23T01:54:55;18.50;99.90
7028;DHT22;3555;53.248;10.336;2022-08-23T01:57:23;18.50;99.90
7028;DHT22;3555;53.248;10.336;2022-08-23T01:59:51;18.50;1.00
7028;DHT22;3555;53.248;10.336;2022-08-23T02:02:18;18.60;99.90
7028;DHT22;3555;53.248;10.336;2022-08-23T02:04:45;18.60;99.90
7028;DHT22;3555;53.248;10.336;2022-08-23T02:07:12;18.50;99.90
7028;DHT22;3555;53.248;10.336;2022-08-23T02:09:39;18.50;1.00
7028;DHT22;3555;53.248;10.336;2022-08-23T02:12:07;18.40;1.00
7028;DHT22;3555;53.248;10.336;2022-08-23T02:14:34;18.40;70.50
7028;DHT22;3555;53.248;10.336;2022-08-23T02:17:08;18.40;99.90
7028;DHT22;3555;53.248;10.336;2022-08-23T02:19:36;18.40;1.00
7028;DHT22;3555;53.248;10.336;2022-08-23T02:22:05;18.50;1.00
7028;DHT22;3555;53.248;10.336;2022-08-23T02:24:32;18.40;1.00
7028;DHT22;3555;53.248;10.336;2022-08-23T02:27:03;18.20;99.90
7028;DHT22;3555;53.248;10.336;2022-08-23T02:29:30;18.20;1.00
7028;DHT22;3555;53.248;10.336;2022-08-23T02:32:00;18.00;1.00
7028;DHT22;3555;53.248;10.336;2022-08-23T02:34:30;17.90;99.90
7028;DHT22;3555;53.248;10.336;2022-08-23T02:36:58;18.00;99.90
7028;DHT22;3555;53.248;10.336;2022-08-23T02:39:26;18.00;99.90
7028;DHT22;3555;53.248;10.336;2022-08-23T02:41:53;18.00;1.00
7028;DHT22;3555;53.248;10.336;2022-08-23T02:44:20;18.10;1.00
7028;DHT22;3555;53.248;10.336;2022-08-23T02:46:47;18.10;99.90
7028;DHT22;3555;53.248;10.336;2022-08-23T02:49:14;18.00;1.00
7028;DHT22;3555;53.248;10.336;2022-08-23T02:51:43;18.10;1.00
7028;DHT22;3555;53.248;10.336;2022-08-23T02:54:10;18.10;99.90
7028;DHT22;3555;53.248;10.336;2022-08-23T02:56:37;18.10;1.00
7028;DHT22;3555;53.248;10.336;2022-08-23T02:59:05;18.20;67.60
7028;DHT22;3555;53.248;10.336;2022-08-23T03:01:34;18.10;12.50
7028;DHT22;3555;53.248;10.336;2022-08-23T03:04:03;18.10;1.00
7028;DHT22;3555;53.248;10.336;2022-08-23T03:06:30;18.20;1.00
7028;DHT22;3555;53.248;10.336;2022-08-23T03:08:59;18.10;1.00
7028;DHT22;3555;53.248;10.336;2022-08-23T03:11:26;18.10;99.90
7028;DHT22;3555;53.248;10.336;2022-08-23T03:13:53;18.20;1.00
7028;DHT22;3555;53.248;10.336;2022-08-23T03:16:21;18.10;1.00
7028;DHT22;3555;53.248;10.336;2022-08-23T03:18:49;17.90;1.00
7028;DHT22;3555;53.248;10.336;2022-08-23T03:21:16;17.70;1.00
7028;DHT22;3555;53.248;10.336;2022-08-23T03:23:44;17.60;1.00
7028;DHT22;3555;53.248;10.336;2022-08-23T03:26:13;17.60;1.00
7028;DHT22;3555;53.248;10.336;2022-08-23T03:28:42;17.70;1.00
7028;DHT22;3555;53.248;10.336;2022-08-23T03:31:10;17.60;99.90
7028;DHT22;3555;53.248;10.336;2022-08-23T03:33:38;17.70;1.00
7028;DHT22;3555;53.248;10.336;2022-08-23T03:36:06;17.70;1.00
7028;DHT22;3555;53.248;10.336;2022-08-23T03:38:34;17.80;1.00
7028;DHT22;3555;53.248;10.336;2022-08-23T03:41:01;17.80;1.00
7028;DHT22;3555;53.248;10.336;2022-08-23T03:43:29;17.70;1.00
7028;DHT22;3555;53.248;10.336;2022-08-23T03:45:56;17.40;99.90
7028;DHT22;3555;53.248;10.336;2022-08-23T03:48:23;17.40;1.00
7028;DHT22;3555;53.248;10.336;2022-08-23T03:50:50;17.30;1.00
7028;DHT22;3555;53.248;10.336;2022-08-23T03:53:17;17.40;1.00
7028;DHT22;3555;53.248;10.336;2022-08-23T03:55:44;17.40;1.00
7028;DHT22;3555;53.248;10.336;2022-08-23T03:58:11;17.30;1.00
7028;DHT22;3555;53.248;10.336;2022-08-23T04:00:40;17.40;1.00
7028;DHT22;3555;53.248;10.336;2022-08-23T04:03:06;17.50;1.00
7028;DHT22;3555;53.248;10.336;2022-08-23T04:05:33;17.50;1.00
7028;DHT22;3555;53.248;10.336;2022-08-23T04:08:06;17.50;1.00
7028;DHT22;3555;53.248;10.336;2022-08-23T04:10:32;17.30;1.00
7028;DHT22;3555;53.248;10.336;2022-08-23T04:12:59;17.30;1.00
7028;DHT22;3555;53.248;10.336;2022-08-23T04:15:27;17.30;1.00
7028;DHT22;3555;53.248;10.336;2022-08-23T04:17:56;17.40;1.00
7028;DHT22;3555;53.248;10.336;2022-08-23T04:20:24;17.40;1.00
7028;DHT22;3555;53.248;10.336;2022-08-23T04:22:51;17.30;1.00
7028;DHT22;3555;53.248;10.336;2022-08-23T04:25:19;17.30;1.00
7028;DHT22;3555;53.248;10.336;2022-08-23T04:27:46;17.30;1.00
7028;DHT22;3555;53.248;10.336;2022-08-23T04:30:13;17.20;1.00
7028;DHT22;3555;53.248;10.336;2022-08-23T04:32:40;17.20;1.00
7028;DHT22;3555;53.248;10.336;2022-08-23T04:35:08;17.20;1.00
7028;DHT22;3555;53.248;10.336;2022-08-23T04:37:36;17.10;1.00
7028;DHT22;3555;53.248;10.336;2022-08-23T04:40:03;17.10;1.00
7028;DHT22;3555;53.248;10.336;2022-08-23T04:42:47;17.10;1.00
7028;DHT22;3555;53.248;10.336;2022-08-23T04:45:15;17.20;1.00
7028;DHT22;3555;53.248;10.336;2022-08-23T04:47:41;17.20;1.00
7028;DHT22;3555;53.248;10.336;2022-08-23T04:50:10;17.10;1.00
7028;DHT22;3555;53.248;10.336;2022-08-23T04:52:37;17.00;1.00
7028;DHT22;3555;53.248;10.336;2022-08-23T04:55:06;17.10;1.00
7028;DHT22;3555;53.248;10.336;2022-08-23T04:57:33;17.00;1.00
7028;DHT22;3555;53.248;10.336;2022-08-23T04:59:59;16.90;1.00
7028;DHT22;3555;53.248;10.336;2022-08-23T05:02:26;16.90;1.00
7028;DHT22;3555;53.248;10.336;2022-08-23T05:04:53;16.80;1.00
7028;DHT22;3555;53.248;10.336;2022-08-23T05:07:22;16.80;1.00
7028;DHT22;3555;53.248;10.336;2022-08-23T05:09:48;16.90;1.00
7028;DHT22;3555;53.248;10.336;2022-08-23T05:12:15;17.00;1.00
7028;DHT22;3555;53.248;10.336;2022-08-23T05:14:42;17.10;1.00
7028;DHT22;3555;53.248;10.336;2022-08-23T05:17:09;17.10;1.00
7028;DHT22;3555;53.248;10.336;2022-08-23T05:19:36;17.10;1.00
7028;DHT22;3555;53.248;10.336;2022-08-23T05:22:02;17.20;1.00
7028;DHT22;3555;53.248;10.336;2022-08-23T05:24:31;17.20;1.00
7028;DHT22;3555;53.248;10.336;2022-08-23T05:26:58;17.30;1.00
7028;DHT22;3555;53.248;10.336;2022-08-23T05:29:25;17.40;1.00
7028;DHT22;3555;53.248;10.336;2022-08-23T05:31:51;17.50;99.90
7028;DHT22;3555;53.248;10.336;2022-08-23T05:34:18;17.70;99.90
7028;DHT22;3555;53.248;10.336;2022-08-23T05:36:45;17.70;1.00
7028;DHT22;3555;53.248;10.336;2022-08-23T05:39:13;17.80;99.90
7028;DHT22;3555;53.248;10.336;2022-08-23T05:41:42;18.00;1.00
7028;DHT22;3555;53.248;10.336;2022-08-23T05:44:09;18.10;99.90
7028;DHT22;3555;53.248;10.336;2022-08-23T05:46:36;18.20;1.00
7028;DHT22;3555;53.248;10.336;2022-08-23T05:49:03;18.50;99.90
7028;DHT22;3555;53.248;10.336;2022-08-23T05:51:33;18.60;99.90
7028;DHT22;3555;53.248;10.336;2022-08-23T05:54:02;18.90;99.90
7028;DHT22;3555;53.248;10.336;2022-08-23T05:56:31;19.10;99.90
7028;DHT22;3555;53.248;10.336;2022-08-23T05:59:02;19.50;1.00
7028;DHT22;3555;53.248;10.336;2022-08-23T06:01:30;19.70;99.90
7028;DHT22;3555;53.248;10.336;2022-08-23T06:03:58;19.80;1.00
7028;DHT22;3555;53.248;10.336;2022-08-23T06:06:25;20.00;1.00
7028;DHT22;3555;53.248;10.336;2022-08-23T06:08:53;20.10;1.00
7028;DHT22;3555;53.248;10.336;2022-08-23T06:11:22;20.30;1.00
7028;DHT22;3555;53.248;10.336;2022-08-23T06:13:51;20.40;1.00
7028;DHT22;3555;53.248;10.336;2022-08-23T06:16:23;20.50;99.90
7028;DHT22;3555;53.248;10.336;2022-08-23T06:18:50;20.70;99.90
7028;DHT22;3555;53.248;10.336;2022-08-23T06:21:17;20.60;55.10
7028;DHT22;3555;53.248;10.336;2022-08-23T06:23:44;20.60;1.00
7028;DHT22;3555;53.248;10.336;2022-08-23T06:26:13;20.70;1.00
7028;DHT22;3555;53.248;10.336;2022-08-23T06:28:41;20.80;1.00
7028;DHT22;3555;53.248;10.336;2022-08-23T06:31:08;20.90;1.00
7028;DHT22;3555;53.248;10.336;2022-08-23T06:33:39;21.00;1.00
7028;DHT22;3555;53.248;10.336;2022-08-23T06:36:08;21.10;1.00
7028;DHT22;3555;53.248;10.336;2022-08-23T06:38:36;21.20;1.00
7028;DHT22;3555;53.248;10.336;2022-08-23T06:41:04;21.30;1.00
7028;DHT22;3555;53.248;10.336;2022-08-23T06:43:32;21.40;1.00
7028;DHT22;3555;53.248;10.336;2022-08-23T06:46:07;21.50;1.00
7028;DHT22;3555;53.248;10.336;2022-08-23T06:48:35;21.80;1.00
7028;DHT22;3555;53.248;10.336;2022-08-23T06:51:09;22.10;99.90
7028;DHT22;3555;53.248;10.336;2022-08-23T06:53:36;22.50;99.90
7028;DHT22;3555;53.248;10.336;2022-08-23T06:56:03;22.80;99.90
7028;DHT22;3555;53.248;10.336;2022-08-23T06:58:30;22.80;99.90
7028;DHT22;3555;53.248;10.336;2022-08-23T07:01:08;22.80;99.90
7028;DHT22;3555;53.248;10.336;2022-08-23T07:03:35;22.90;99.90
7028;DHT22;3555;53.248;10.336;2022-08-23T07:06:04;22.50;99.90
7028;DHT22;3555;53.248;10.336;2022-08-23T07:08:32;22.40;99.90
7028;DHT22;3555;53.248;10.336;2022-08-23T07:10:59;22.60;99.90
7028;DHT22;3555;53.248;10.336;2022-08-23T07:13:26;22.90;99.90
7028;DHT22;3555;53.248;10.336;2022-08-23T07:15:56;23.10;99.90
7028;DHT22;3555;53.248;10.336;2022-08-23T07:18:23;23.00;60.70
7028;DHT22;3555;53.248;10.336;2022-08-23T07:20:54;23.10;99.90
7028;DHT22;3555;53.248;10.336;2022-08-23T07:23:23;23.40;84.80
7028;DHT22;3555;53.248;10.336;2022-08-23T07:25:50;23.50;79.70
7028;DHT22;3555;53.248;10.336;2022-08-23T07:28:17;23.70;1.00
7028;DHT22;3555;53.248;10.336;2022-08-23T07:30:44;23.50;1.00
7028;DHT22;3555;53.248;10.336;2022-08-23T07:33:11;23.90;4.80
7028;DHT22;3555;53.248;10.336;2022-08-23T07:35:45;24.00;1.00
7028;DHT22;3555;53.248;10.336;2022-08-23T07:38:12;24.40;1.00
7028;DHT22;3555;53.248;10.336;2022-08-23T07:40:41;24.40;1.00
7028;DHT22;3555;53.248;10.336;2022-08-23T07:43:09;24.70;1.00
7028;DHT22;3555;53.248;10.336;2022-08-23T07:45:37;24.30;1.00
7028;DHT22;3555;53.248;10.336;2022-08-23T07:48:05;24.30;1.00
7028;DHT22;3555;53.248;10.336;2022-08-23T07:50:32;24.30;1.00
7028;DHT22;3555;53.248;10.336;2022-08-23T07:52:59;24.50;1.00
7028;DHT22;3555;53.248;10.336;2022-08-23T07:55:27;24.80;1.00
7028;DHT22;3555;53.248;10.336;2022-08-23T07:57:55;25.20;1.00
7028;DHT22;3555;53.248;10.336;2022-08-23T08:00:22;25.00;1.00
7028;DHT22;3555;53.248;10.336;2022-08-23T08:02:49;25.10;1.00
7028;DHT22;3555;53.248;10.336;2022-08-23T08:05:16;25.00;1.00
7028;DHT22;3555;53.248;10.336;2022-08-23T08:07:43;25.30;1.00
7028;DHT22;3555;53.248;10.336;2022-08-23T08:10:10;25.30;1.00
7028;DHT22;3555;53.248;10.336;2022-08-23T08:12:37;25.20;1.00
7028;DHT22;3555;53.248;10.336;2022-08-23T08:15:06;25.30;1.00
7028;DHT22;3555;53.248;10.336;2022-08-23T08:17:33;25.40;1.00
7028;DHT22;3555;53.248;10.336;2022-08-23T08:20:00;25.80;1.00
7028;DHT22;3555;53.248;10.336;2022-08-23T08:22:27;26.10;1.00
7028;DHT22;3555;53.248;10.336;2022-08-23T08:24:54;25.70;1.00
7028;DHT22;3555;53.248;10.336;2022-08-23T08:27:22;25.40;1.00
7028;DHT22;3555;53.248;10.336;2022-08-23T08:29:49;25.30;1.00
7028;DHT22;3555;53.248;10.336;2022-08-23T08:32:17;25.10;1.00
7028;DHT22;3555;53.248;10.336;2022-08-23T08:34:44;25.30;1.00
7028;DHT22;3555;53.248;10.336;2022-08-23T08:37:10;25.30;1.00
7028;DHT22;3555;53.248;10.336;2022-08-23T08:39:37;25.00;1.00
7028;DHT22;3555;53.248;10.336;2022-08-23T08:42:22;25.10;1.00
7028;DHT22;3555;53.248;10.336;2022-08-23T08:44:53;25.80;1.00
7028;DHT22;3555;53.248;10.336;2022-08-23T08:47:30;26.30;1.00
7028;DHT22;3555;53.248;10.336;2022-08-23T08:50:03;26.50;1.00
7028;DHT22;3555;53.248;10.336;2022-08-23T08:52:35;26.60;1.00
7028;DHT22;3555;53.248;10.336;2022-08-23T08:55:05;26.70;1.00
7028;DHT22;3555;53.248;10.336;2022-08-23T08:57:37;26.30;1.00
7028;DHT22;3555;53.248;10.336;2022-08-23T09:00:09;26.10;1.00
7028;DHT22;3555;53.248;10.336;2022-08-23T09:02:39;26.20;1.00
7028;DHT22;3555;53.248;10.336;2022-08-23T09:05:10;26.30;1.00
7028;DHT22;3555;53.248;10.336;2022-08-23T09:07:46;26.10;1.00
7028;DHT22;3555;53.248;10.336;2022-08-23T09:10:30;26.10;1.00
7028;DHT22;3555;53.248;10.336;2022-08-23T09:13:25;26.40;1.00
7028;DHT22;3555;53.248;10.336;2022-08-23T09:16:06;26.10;1.00
7028;DHT22;3555;53.248;10.336;2022-08-23T09:18:38;26.10;1.00
7028;DHT22;3555;53.248;10.336;2022-08-23T09:21:07;25.50;1.00
7028;DHT22;3555;53.248;10.336;2022-08-23T09:23:37;25.40;1.00
7028;DHT22;3555;53.248;10.336;2022-08-23T09:26:17;25.80;1.00
7028;DHT22;3555;53.248;10.336;2022-08-23T09:28:44;26.10;1.00
7028;DHT22;3555;53.248;10.336;2022-08-23T09:33:59;26.20;1.00
7028;DHT22;3555;53.248;10.336;2022-08-23T09:36:26;26.10;1.00
7028;DHT22;3555;53.248;10.336;2022-08-23T09:39:00;26.30;1.00
7028;DHT22;3555;53.248;10.336;2022-08-23T09:41:31;26.60;1.00
7028;DHT22;3555;53.248;10.336;2022-08-23T09:43:58;27.10;1.00
7028;DHT22;3555;53.248;10.336;2022-08-23T09:46:28;27.30;1.00
7028;DHT22;3555;53.248;10.336;2022-08-23T09:48:56;27.30;1.00
7028;DHT22;3555;53.248;10.336;2022-08-23T09:51:30;27.20;1.00
7028;DHT22;3555;53.248;10.336;2022-08-23T09:54:05;27.10;1.00
7028;DHT22;3555;53.248;10.336;2022-08-23T09:56:36;27.10;1.00
7028;DHT22;3555;53.248;10.336;2022-08-23T09:59:38;27.10;1.00
7028;DHT22;3555;53.248;10.336;2022-08-23T10:02:14;27.00;1.00
7028;DHT22;3555;53.248;10.336;2022-08-23T10:04:55;26.90;1.00
7028;DHT22;3555;53.248;10.336;2022-08-23T10:07:27;26.70;1.00
7028;DHT22;3555;53.248;10.336;2022-08-23T10:10:16;26.80;1.00
7028;DHT22;3555;53.248;10.336;2022-08-23T10:12:43;27.10;1.00
7028;DHT22;3555;53.248;10.336;2022-08-23T10:15:11;27.00;1.00
7028;DHT22;3555;53.248;10.336;2022-08-23T10:17:42;27.10;1.00
7028;DHT22;3555;53.248;10.336;2022-08-23T10:23:09;27.00;1.00
7028;DHT22;3555;53.248;10.336;2022-08-23T10:25:43;26.90;1.00
7028;DHT22;3555;53.248;10.336;2022-08-23T10:28:19;26.70;1.00
7028;DHT22;3555;53.248;10.336;2022-08-23T10:31:13;26.80;1.00
7028;DHT22;3555;53.248;10.336;2022-08-23T10:33:48;27.10;1.00
7028;DHT22;3555;53.248;10.336;2022-08-23T10:36:25;27.20;1.00
7028;DHT22;3555;53.248;10.336;2022-08-23T10:38:56;27.30;1.00
7028;DHT22;3555;53.248;10.336;2022-08-23T10:41:39;27.30;1.00
7028;DHT22;3555;53.248;10.336;2022-08-23T10:44:21;27.40;1.00
7028;DHT22;3555;53.248;10.336;2022-08-23T10:46:58;27.20;1.00
7028;DHT22;3555;53.248;10.336;2022-08-23T10:49:27;27.50;1.00
7028;DHT22;3555;53.248;10.336;2022-08-23T10:51:55;27.30;1.00
7028;DHT22;3555;53.248;10.336;2022-08-23T10:54:36;27.70;1.00
7028;DHT22;3555;53.248;10.336;2022-08-23T10:57:13;27.70;1.00
7028;DHT22;3555;53.248;10.336;2022-08-23T10:59:41;27.60;1.00
7028;DHT22;3555;53.248;10.336;2022-08-23T11:02:17;27.60;1.00
7028;DHT22;3555;53.248;10.336;2022-08-23T11:04:51;27.50;1.00
7028;DHT22;3555;53.248;10.336;2022-08-23T11:07:24;27.50;1.00
7028;DHT22;3555;53.248;10.336;2022-08-23T11:09:55;27.40;1.00
7028;DHT22;3555;53.248;10.336;2022-08-23T11:12:28;27.50;1.00
7028;DHT22;3555;53.248;10.336;2022-08-23T11:15:18;27.30;1.00
7028;DHT22;3555;53.248;10.336;2022-08-23T11:18:06;27.40;1.00
7028;DHT22;3555;53.248;10.336;2022-08-23T11:23:46;27.90;1.00
7028;DHT22;3555;53.248;10.336;2022-08-23T11:29:30;27.80;1.00
7028;DHT22;3555;53.248;10.336;2022-08-23T11:32:04;28.10;1.00
7028;DHT22;3555;53.248;10.336;2022-08-23T11:34:43;28.30;1.00
7028;DHT22;3555;53.248;10.336;2022-08-23T11:37:25;28.60;1.00
7028;DHT22;3555;53.248;10.336;2022-08-23T11:40:08;28.40;1.00
7028;DHT22;3555;53.248;10.336;2022-08-23T11:42:50;28.40;1.00
7028;DHT22;3555;53.248;10.336;2022-08-23T11:45:28;28.20;1.00
7028;DHT22;3555;53.248;10.336;2022-08-23T11:48:10;28.20;1.00
7028;DHT22;3555;53.248;10.336;2022-08-23T11:51:01;28.10;1.00
7028;DHT22;3555;53.248;10.336;2022-08-23T11:53:48;27.90;1.00
7028;DHT22;3555;53.248;10.336;2022-08-23T11:56:41;28.00;1.00
7028;DHT22;3555;53.248;10.336;2022-08-23T11:59:26;28.20;1.00
7028;DHT22;3555;53.248;10.336;2022-08-23T12:05:20;28.30;1.00
7028;DHT22;3555;53.248;10.336;2022-08-23T12:08:31;28.10;1.00
7028;DHT22;3555;53.248;10.336;2022-08-23T12:11:03;28.10;1.00
7028;DHT22;3555;53.248;10.336;2022-08-23T12:13:45;28.10;1.00
7028;DHT22;3555;53.248;10.336;2022-08-23T12:16:31;28.30;1.00
7028;DHT22;3555;53.248;10.336;2022-08-23T12:19:04;28.50;1.00
7028;DHT22;3555;53.248;10.336;2022-08-23T12:21:41;28.40;1.00
7028;DHT22;3555;53.248;10.336;2022-08-23T12:24:22;28.00;1.00
7028;DHT22;3555;53.248;10.336;2022-08-23T12:27:04;28.00;1.00
7028;DHT22;3555;53.248;10.336;2022-08-23T12:29:45;28.10;1.00
7028;DHT22;3555;53.248;10.336;2022-08-23T12:32:18;28.20;1.00
7028;DHT22;3555;53.248;10.336;2022-08-23T12:35:02;28.30;1.00
7028;DHT22;3555;53.248;10.336;2022-08-23T12:37:38;28.60;1.00
7028;DHT22;3555;53.248;10.336;2022-08-23T12:40:12;28.60;1.00
7028;DHT22;3555;53.248;10.336;2022-08-23T12:42:39;28.50;1.00
7028;DHT22;3555;53.248;10.336;2022-08-23T12:45:12;28.60;1.00
7028;DHT22;3555;53.248;10.336;2022-08-23T12:47:40;28.60;1.00
7028;DHT22;3555;53.248;10.336;2022-08-23T12:50:19;28.40;1.00
7028;DHT22;3555;53.248;10.336;2022-08-23T12:52:56;28.10;1.00
7028;DHT22;3555;53.248;10.336;2022-08-23T12:55:30;28.20;1.00
7028;DHT22;3555;53.248;10.336;2022-08-23T12:57:58;28.20;1.00
7028;DHT22;3555;53.248;10.336;2022-08-23T13:00:29;28.20;1.00
7028;DHT22;3555;53.248;10.336;2022-08-23T13:02:59;28.20;1.00
7028;DHT22;3555;53.248;10.336;2022-08-23T13:05:35;28.20;1.00
7028;DHT22;3555;53.248;10.336;2022-08-23T13:08:06;28.30;1.00
7028;DHT22;3555;53.248;10.336;2022-08-23T13:10:35;28.40;1.00
7028;DHT22;3555;53.248;10.336;2022-08-23T13:13:03;28.30;1.00
7028;DHT22;3555;53.248;10.336;2022-08-23T13:15:49;28.50;1.00
7028;DHT22;3555;53.248;10.336;2022-08-23T13:18:25;28.50;99.90
7028;DHT22;3555;53.248;10.336;2022-08-23T13:21:26;28.20;99.90
7028;DHT22;3555;53.248;10.336;2022-08-23T13:23:56;28.40;99.90
7028;DHT22;3555;53.248;10.336;2022-08-23T13:26:26;28.50;99.90
7028;DHT22;3555;53.248;10.336;2022-08-23T13:29:02;28.60;99.90
7028;DHT22;3555;53.248;10.336;2022-08-23T13:31:48;28.20;99.90
7028;DHT22;3555;53.248;10.336;2022-08-23T13:34:33;28.30;99.90
7028;DHT22;3555;53.248;10.336;2022-08-23T13:37:05;28.30;99.90
7028;DHT22;3555;53.248;10.336;2022-08-23T13:39:35;28.50;99.90
7028;DHT22;3555;53.248;10.336;2022-08-23T13:42:03;28.40;99.90
7028;DHT22;3555;53.248;10.336;2022-08-23T13:44:30;28.40;99.90
7028;DHT22;3555;53.248;10.336;2022-08-23T13:46:58;28.60;1.00
7028;DHT22;3555;53.248;10.336;2022-08-23T13:49:27;28.70;99.90
7028;DHT22;3555;53.248;10.336;2022-08-23T13:52:08;28.60;99.90
7028;DHT22;3555;53.248;10.336;2022-08-23T13:54:35;28.80;99.90
7028;DHT22;3555;53.248;10.336;2022-08-23T13:57:06;28.90;99.90
7028;DHT22;3555;53.248;10.336;2022-08-23T13:59:38;28.60;99.90
7028;DHT22;3555;53.248;10.336;2022-08-23T14:02:09;28.70;99.90
7028;DHT22;3555;53.248;10.336;2022-08-23T14:04:38;28.90;99.90
7028;DHT22;3555;53.248;10.336;2022-08-23T14:07:07;28.90;99.90
7028;DHT22;3555;53.248;10.336;2022-08-23T14:09:35;29.00;99.90
7028;DHT22;3555;53.248;10.336;2022-08-23T14:12:05;28.90;99.90
7028;DHT22;3555;53.248;10.336;2022-08-23T14:14:34;29.00;99.90
7028;DHT22;3555;53.248;10.336;2022-08-23T14:17:01;29.10;99.90
7028;DHT22;3555;53.248;10.336;2022-08-23T14:19:28;29.10;99.90
7028;DHT22;3555;53.248;10.336;2022-08-23T14:21:56;29.10;99.90
7028;DHT22;3555;53.248;10.336;2022-08-23T14:24:25;29.00;99.90
7028;DHT22;3555;53.248;10.336;2022-08-23T14:26:53;28.70;99.90
7028;DHT22;3555;53.248;10.336;2022-08-23T14:29:21;28.60;99.90
7028;DHT22;3555;53.248;10.336;2022-08-23T14:31:49;28.80;99.90
7028;DHT22;3555;53.248;10.336;2022-08-23T14:34:15;28.80;99.90
7028;DHT22;3555;53.248;10.336;2022-08-23T14:36:42;28.70;99.90
7028;DHT22;3555;53.248;10.336;2022-08-23T14:39:09;28.80;99.90
7028;DHT22;3555;53.248;10.336;2022-08-23T14:41:37;28.80;99.90
7028;DHT22;3555;53.248;10.336;2022-08-23T14:44:04;28.90;99.90
7028;DHT22;3555;53.248;10.336;2022-08-23T14:46:32;29.00;99.90
7028;DHT22;3555;53.248;10.336;2022-08-23T14:48:59;29.00;99.90
7028;DHT22;3555;53.248;10.336;2022-08-23T14:51:29;28.70;99.90
7028;DHT22;3555;53.248;10.336;2022-08-23T14:53:57;28.80;99.90
7028;DHT22;3555;53.248;10.336;2022-08-23T14:56:24;28.90;99.90
7028;DHT22;3555;53.248;10.336;2022-08-23T14:58:52;28.80;99.90
7028;DHT22;3555;53.248;10.336;2022-08-23T15:01:19;28.90;99.90
7028;DHT22;3555;53.248;10.336;2022-08-23T15:03:47;29.00;99.90
7028;DHT22;3555;53.248;10.336;2022-08-23T15:06:16;28.80;99.90
7028;DHT22;3555;53.248;10.336;2022-08-23T15:08:44;29.00;99.90
7028;DHT22;3555;53.248;10.336;2022-08-23T15:11:11;28.90;99.90
7028;DHT22;3555;53.248;10.336;2022-08-23T15:13:41;28.80;99.90
7028;DHT22;3555;53.248;10.336;2022-08-23T15:16:13;28.90;99.90
7028;DHT22;3555;53.248;10.336;2022-08-23T15:18:45;29.00;99.90
7028;DHT22;3555;53.248;10.336;2022-08-23T15:21:13;28.90;99.90
7028;DHT22;3555;53.248;10.336;2022-08-23T15:23:40;29.10;99.90
7028;DHT22;3555;53.248;10.336;2022-08-23T15:26:07;29.20;99.90
7028;DHT22;3555;53.248;10.336;2022-08-23T15:28:35;29.20;99.90
7028;DHT22;3555;53.248;10.336;2022-08-23T15:31:02;29.20;99.90
7028;DHT22;3555;53.248;10.336;2022-08-23T15:33:30;29.10;99.90
7028;DHT22;3555;53.248;10.336;2022-08-23T15:35:58;29.10;99.90
7028;DHT22;3555;53.248;10.336;2022-08-23T15:38:27;29.10;99.90
7028;DHT22;3555;53.248;10.336;2022-08-23T15:40:56;28.90;99.90
7028;DHT22;3555;53.248;10.336;2022-08-23T15:43:23;28.90;99.90
7028;DHT22;3555;53.248;10.336;2022-08-23T15:45:50;28.80;99.90
7028;DHT22;3555;53.248;10.336;2022-08-23T15:48:22;28.50;99.90
7028;DHT22;3555;53.248;10.336;2022-08-23T15:50:51;28.60;99.90
7028;DHT22;3555;53.248;10.336;2022-08-23T15:53:18;28.60;99.90
7028;DHT22;3555;53.248;10.336;2022-08-23T15:55:46;28.70;99.90
7028;DHT22;3555;53.248;10.336;2022-08-23T15:58:15;28.80;99.90
7028;DHT22;3555;53.248;10.336;2022-08-23T16:00:42;28.80;99.90
7028;DHT22;3555;53.248;10.336;2022-08-23T16:03:10;28.80;99.90
7028;DHT22;3555;53.248;10.336;2022-08-23T16:05:38;28.80;99.90
7028;DHT22;3555;53.248;10.336;2022-08-23T16:08:07;28.80;99.90
7028;DHT22;3555;53.248;10.336;2022-08-23T16:10:38;28.70;99.90
7028;DHT22;3555;53.248;10.336;2022-08-23T16:13:05;28.70;99.90
7028;DHT22;3555;53.248;10.336;2022-08-23T16:15:32;28.60;99.90
7028;DHT22;3555;53.248;10.336;2022-08-23T16:17:59;28.40;99.90
7028;DHT22;3555;53.248;10.336;2022-08-23T16:20:26;28.40;99.90
7028;DHT22;3555;53.248;10.336;2022-08-23T16:22:52;28.30;99.90
7028;DHT22;3555;53.248;10.336;2022-08-23T16:25:21;28.20;99.90
7028;DHT22;3555;53.248;10.336;2022-08-23T16:27:48;28.10;99.90
7028;DHT22;3555;53.248;10.336;2022-08-23T16:30:15;28.10;1.00
7028;DHT22;3555;53.248;10.336;2022-08-23T16:32:42;28.10;99.90